sensor_id;sensor_type;location;lat;lon;timestamp;temperature;humidity
84340;SHT30;74521;45.618;5.212;2024-03-02T00:00:44;21.76;38.10
84340;SHT30;74521;45.618;5.212;2024-03-02T00:03:12;21.76;38.02
84340;SHT30;74521;45.618;5.212;2024-03-02T00:05:40;21.77;38.00
84340;SHT30;74521;45.618;5.212;2024-03-02T00:08:07;21.77;38.01
84340;SHT30;74521;45.618;5.212;2024-03-02T00:10:36;21.76;37.94
84340;SHT30;74521;45.618;5.212;2024-03-02T00:13:05;21.74;37.98
84340;SHT30;74521;45.618;5.212;2024-03-02T00:15:41;21.76;37.97
84340;SHT30;74521;45.618;5.212;2024-03-02T00:18:10;21.77;37.90
84340;SHT30;74521;45.618;5.212;2024-03-02T00:20:38;21.74;37.93
84340;SHT30;74521;45.618;5.212;2024-03-02T00:23:07;21.74;37.90
84340;SHT30;74521;45.618;5.212;2024-03-02T00:25:41;21.73;37.95
84340;SHT30;74521;45.618;5.212;2024-03-02T00:28:16;21.71;37.95
84340;SHT30;74521;45.618;5.212;2024-03-02T00:30:57;21.71;37.86
84340;SHT30;74521;45.618;5.212;2024-03-02T00:33:26;21.71;37.95
84340;SHT30;74521;45.618;5.212;2024-03-02T00:35:53;21.71;38.11
84340;SHT30;74521;45.618;5.212;2024-03-02T00:38:21;21.71;38.16
84340;SHT30;74521;45.618;5.212;2024-03-02T00:40:48;21.71;38.10
84340;SHT30;74521;45.618;5.212;2024-03-02T00:43:43;21.71;38.14
84340;SHT30;74521;45.618;5.212;2024-03-02T00:46:16;21.74;38.12
84340;SHT30;74521;45.618;5.212;2024-03-02T00:48:55;21.73;38.11
84340;SHT30;74521;45.618;5.212;2024-03-02T00:51:23;21.74;38.12
84340;SHT30;74521;45.618;5.212;2024-03-02T00:53:51;21.71;38.10
84340;SHT30;74521;45.618;5.212;2024-03-02T00:56:20;21.73;38.15
84340;SHT30;74521;45.618;5.212;2024-03-02T00:58:47;21.73;38.14
84340;SHT30;74521;45.618;5.212;2024-03-02T01:01:14;21.70;38.16
84340;SHT30;74521;45.618;5.212;2024-03-02T01:03:41;21.71;38.09
84340;SHT30;74521;45.618;5.212;2024-03-02T01:06:08;21.71;38.03
84340;SHT30;74521;45.618;5.212;2024-03-02T01:08:35;21.68;38.26
84340;SHT30;74521;45.618;5.212;2024-03-02T01:11:04;21.70;38.32
84340;SHT30;74521;45.618;5.212;2024-03-02T01:13:30;21.71;38.30
84340;SHT30;74521;45.618;5.212;2024-03-02T01:15:57;21.71;38.36
84340;SHT30;74521;45.618;5.212;2024-03-02T01:18:24;21.73;38.31
84340;SHT30;74521;45.618;5.212;2024-03-02T01:20:51;21.70;38.34
84340;SHT30;74521;45.618;5.212;2024-03-02T01:23:18;21.74;38.30
84340;SHT30;74521;45.618;5.212;2024-03-02T01:25:46;21.70;38.33
84340;SHT30;74521;45.618;5.212;2024-03-02T01:28:14;21.73;38.33
84340;SHT30;74521;45.618;5.212;2024-03-02T01:30:41;21.70;38.36
84340;SHT30;74521;45.618;5.212;2024-03-02T01:33:08;21.70;38.37
84340;SHT30;74521;45.618;5.212;2024-03-02T01:35:34;21.70;38.30
84340;SHT30;74521;45.618;5.212;2024-03-02T01:38:01;21.70;38.35
84340;SHT30;74521;45.618;5.212;2024-03-02T01:40:28;21.67;38.26
84340;SHT30;74521;45.618;5.212;2024-03-02T01:42:55;21.64;38.30
84340;SHT30;74521;45.618;5.212;2024-03-02T01:45:24;21.67;38.50
84340;SHT30;74521;45.618;5.212;2024-03-02T01:47:52;21.70;38.54
84340;SHT30;74521;45.618;5.212;2024-03-02T01:50:24;21.68;38.57
84340;SHT30;74521;45.618;5.212;2024-03-02T01:52:51;21.70;38.56
84340;SHT30;74521;45.618;5.212;2024-03-02T01:55:19;21.70;38.57
84340;SHT30;74521;45.618;5.212;2024-03-02T01:57:46;21.71;38.61
84340;SHT30;74521;45.618;5.212;2024-03-02T02:00:14;21.73;38.64
84340;SHT30;74521;45.618;5.212;2024-03-02T02:02:42;21.71;38.60
84340;SHT30;74521;45.618;5.212;2024-03-02T02:05:09;21.71;38.61
84340;SHT30;74521;45.618;5.212;2024-03-02T02:07:36;21.71;38.56
84340;SHT30;74521;45.618;5.212;2024-03-02T02:10:03;21.71;38.55
84340;SHT30;74521;45.618;5.212;2024-03-02T02:12:30;21.73;38.63
84340;SHT30;74521;45.618;5.212;2024-03-02T02:14:57;21.71;38.57
84340;SHT30;74521;45.618;5.212;2024-03-02T02:17:23;21.70;38.54
84340;SHT30;74521;45.618;5.212;2024-03-02T02:19:51;21.68;38.55
84340;SHT30;74521;45.618;5.212;2024-03-02T02:22:19;21.71;38.72
84340;SHT30;74521;45.618;5.212;2024-03-02T02:24:46;21.70;38.74
84340;SHT30;74521;45.618;5.212;2024-03-02T02:27:12;21.73;38.78
84340;SHT30;74521;45.618;5.212;2024-03-02T02:29:40;21.71;38.78
84340;SHT30;74521;45.618;5.212;2024-03-02T02:32:07;21.71;38.79
84340;SHT30;74521;45.618;5.212;2024-03-02T02:34:34;21.70;38.86
84340;SHT30;74521;45.618;5.212;2024-03-02T02:37:00;21.73;38.85
84340;SHT30;74521;45.618;5.212;2024-03-02T02:39:28;21.76;38.77
84340;SHT30;74521;45.618;5.212;2024-03-02T02:41:55;21.76;38.79
84340;SHT30;74521;45.618;5.212;2024-03-02T02:44:22;21.73;38.80
84340;SHT30;74521;45.618;5.212;2024-03-02T02:46:48;21.74;38.70
84340;SHT30;74521;45.618;5.212;2024-03-02T02:49:15;21.76;38.71
84340;SHT30;74521;45.618;5.212;2024-03-02T02:51:42;21.74;38.65
84340;SHT30;74521;45.618;5.212;2024-03-02T02:54:09;21.73;38.70
84340;SHT30;74521;45.618;5.212;2024-03-02T02:56:37;21.73;38.83
84340;SHT30;74521;45.618;5.212;2024-03-02T02:59:03;21.73;38.94
84340;SHT30;74521;45.618;5.212;2024-03-02T03:01:30;21.76;38.89
84340;SHT30;74521;45.618;5.212;2024-03-02T03:03:56;21.73;38.94
84340;SHT30;74521;45.618;5.212;2024-03-02T03:06:23;21.74;38.98
84340;SHT30;74521;45.618;5.212;2024-03-02T03:08:50;21.74;38.93
84340;SHT30;74521;45.618;5.212;2024-03-02T03:11:16;21.74;38.98
84340;SHT30;74521;45.618;5.212;2024-03-02T03:13:44;21.76;38.93
84340;SHT30;74521;45.618;5.212;2024-03-02T03:16:11;21.73;38.94
84340;SHT30;74521;45.618;5.212;2024-03-02T03:18:38;21.74;38.90
84340;SHT30;74521;45.618;5.212;2024-03-02T03:21:05;21.76;38.87
84340;SHT30;74521;45.618;5.212;2024-03-02T03:23:31;21.71;38.92
84340;SHT30;74521;45.618;5.212;2024-03-02T03:25:58;21.74;38.81
84340;SHT30;74521;45.618;5.212;2024-03-02T03:28:24;21.74;38.79
84340;SHT30;74521;45.618;5.212;2024-03-02T03:30:52;21.71;38.90
84340;SHT30;74521;45.618;5.212;2024-03-02T03:33:19;21.74;39.02
84340;SHT30;74521;45.618;5.212;2024-03-02T03:35:46;21.71;39.04
84340;SHT30;74521;45.618;5.212;2024-03-02T03:38:13;21.73;39.06
84340;SHT30;74521;45.618;5.212;2024-03-02T03:40:40;21.73;39.02
84340;SHT30;74521;45.618;5.212;2024-03-02T03:43:07;21.71;38.97
84340;SHT30;74521;45.618;5.212;2024-03-02T03:45:33;21.73;39.02
84340;SHT30;74521;45.618;5.212;2024-03-02T03:48:01;21.71;39.02
84340;SHT30;74521;45.618;5.212;2024-03-02T03:50:28;21.71;39.04
84340;SHT30;74521;45.618;5.212;2024-03-02T03:52:55;21.71;39.00
84340;SHT30;74521;45.618;5.212;2024-03-02T03:55:21;21.73;38.99
84340;SHT30;74521;45.618;5.212;2024-03-02T03:57:48;21.73;39.02
84340;SHT30;74521;45.618;5.212;2024-03-02T04:00:15;21.71;38.98
84340;SHT30;74521;45.618;5.212;2024-03-02T04:02:42;21.73;38.89
84340;SHT30;74521;45.618;5.212;2024-03-02T04:05:10;21.71;39.10
84340;SHT30;74521;45.618;5.212;2024-03-02T04:07:36;21.73;39.09
84340;SHT30;74521;45.618;5.212;2024-03-02T04:10:08;21.74;39.12
84340;SHT30;74521;45.618;5.212;2024-03-02T04:12:36;21.74;39.12
84340;SHT30;74521;45.618;5.212;2024-03-02T04:15:04;21.74;39.09
84340;SHT30;74521;45.618;5.212;2024-03-02T04:17:32;21.71;39.13
84340;SHT30;74521;45.618;5.212;2024-03-02T04:19:59;21.74;39.11
84340;SHT30;74521;45.618;5.212;2024-03-02T04:22:27;21.70;39.09
84340;SHT30;74521;45.618;5.212;2024-03-02T04:24:54;21.74;39.09
84340;SHT30;74521;45.618;5.212;2024-03-02T04:27:21;21.73;39.10
84340;SHT30;74521;45.618;5.212;2024-03-02T04:29:48;21.70;39.06
84340;SHT30;74521;45.618;5.212;2024-03-02T04:32:15;21.71;39.06
84340;SHT30;74521;45.618;5.212;2024-03-02T04:34:41;21.70;38.98
84340;SHT30;74521;45.618;5.212;2024-03-02T04:37:09;21.68;39.05
84340;SHT30;74521;45.618;5.212;2024-03-02T04:39:37;21.71;39.21
84340;SHT30;74521;45.618;5.212;2024-03-02T04:42:04;21.68;39.21
84340;SHT30;74521;45.618;5.212;2024-03-02T04:44:31;21.71;39.24
84340;SHT30;74521;45.618;5.212;2024-03-02T04:46:57;21.70;39.27
84340;SHT30;74521;45.618;5.212;2024-03-02T04:49:24;21.73;39.23
84340;SHT30;74521;45.618;5.212;2024-03-02T04:51:51;21.70;39.19
84340;SHT30;74521;45.618;5.212;2024-03-02T04:54:17;21.73;39.19
84340;SHT30;74521;45.618;5.212;2024-03-02T04:56:45;21.71;39.16
84340;SHT30;74521;45.618;5.212;2024-03-02T04:59:15;21.71;39.20
84340;SHT30;74521;45.618;5.212;2024-03-02T05:01:43;21.71;39.30
84340;SHT30;74521;45.618;5.212;2024-03-02T05:04:09;21.68;39.15
84340;SHT30;74521;45.618;5.212;2024-03-02T05:06:37;21.67;39.18
84340;SHT30;74521;45.618;5.212;2024-03-02T05:09:04;21.70;39.20
84340;SHT30;74521;45.618;5.212;2024-03-02T05:11:31;21.68;39.10
84340;SHT30;74521;45.618;5.212;2024-03-02T05:14:31;21.66;39.29
84340;SHT30;74521;45.618;5.212;2024-03-02T05:16:57;21.68;39.29
84340;SHT30;74521;45.618;5.212;2024-03-02T05:19:24;21.67;39.29
84340;SHT30;74521;45.618;5.212;2024-03-02T05:21:51;21.68;39.40
84340;SHT30;74521;45.618;5.212;2024-03-02T05:24:17;21.68;39.36
84340;SHT30;74521;45.618;5.212;2024-03-02T05:26:44;21.67;39.36
84340;SHT30;74521;45.618;5.212;2024-03-02T05:29:11;21.70;39.37
84340;SHT30;74521;45.618;5.212;2024-03-02T05:31:38;21.68;39.36
84340;SHT30;74521;45.618;5.212;2024-03-02T05:34:05;21.68;39.35
84340;SHT30;74521;45.618;5.212;2024-03-02T05:36:32;21.68;39.36
84340;SHT30;74521;45.618;5.212;2024-03-02T05:38:59;21.67;39.38
84340;SHT30;74521;45.618;5.212;2024-03-02T05:41:25;21.66;39.34
84340;SHT30;74521;45.618;5.212;2024-03-02T05:43:52;21.67;39.38
84340;SHT30;74521;45.618;5.212;2024-03-02T05:46:19;21.67;39.29
84340;SHT30;74521;45.618;5.212;2024-03-02T05:48:47;21.64;39.46
84340;SHT30;74521;45.618;5.212;2024-03-02T05:51:13;21.64;39.42
84340;SHT30;74521;45.618;5.212;2024-03-02T05:53:40;21.68;39.48
84340;SHT30;74521;45.618;5.212;2024-03-02T05:56:07;21.68;39.45
84340;SHT30;74521;45.618;5.212;2024-03-02T05:58:34;21.67;39.51
84340;SHT30;74521;45.618;5.212;2024-03-02T06:01:13;21.67;39.53
84340;SHT30;74521;45.618;5.212;2024-03-02T06:03:40;21.67;39.48
84340;SHT30;74521;45.618;5.212;2024-03-02T06:06:07;21.66;39.45
84340;SHT30;74521;45.618;5.212;2024-03-02T06:08:34;21.67;39.47
84340;SHT30;74521;45.618;5.212;2024-03-02T06:11:01;21.64;39.46
84340;SHT30;74521;45.618;5.212;2024-03-02T06:13:28;21.64;39.44
84340;SHT30;74521;45.618;5.212;2024-03-02T06:15:54;21.67;39.41
84340;SHT30;74521;45.618;5.212;2024-03-02T06:18:21;21.64;39.49
84340;SHT30;74521;45.618;5.212;2024-03-02T06:20:48;21.64;39.41
84340;SHT30;74521;45.618;5.212;2024-03-02T06:23:16;21.64;39.58
84340;SHT30;74521;45.618;5.212;2024-03-02T06:25:43;21.64;39.65
84340;SHT30;74521;45.618;5.212;2024-03-02T06:28:10;21.64;39.64
84340;SHT30;74521;45.618;5.212;2024-03-02T06:30:36;21.64;39.71
84340;SHT30;74521;45.618;5.212;2024-03-02T06:33:03;21.66;39.68
84340;SHT30;74521;45.618;5.212;2024-03-02T06:35:31;21.67;39.72
84340;SHT30;74521;45.618;5.212;2024-03-02T06:37:57;21.66;39.70
84340;SHT30;74521;45.618;5.212;2024-03-02T06:40:25;21.63;39.71
84340;SHT30;74521;45.618;5.212;2024-03-02T06:42:52;21.66;39.67
84340;SHT30;74521;45.618;5.212;2024-03-02T06:45:19;21.66;39.69
84340;SHT30;74521;45.618;5.212;2024-03-02T06:47:46;21.64;39.69
84340;SHT30;74521;45.618;5.212;2024-03-02T06:50:12;21.64;39.70
84340;SHT30;74521;45.618;5.212;2024-03-02T06:52:39;21.61;39.70
84340;SHT30;74521;45.618;5.212;2024-03-02T06:55:06;21.61;39.58
84340;SHT30;74521;45.618;5.212;2024-03-02T06:57:34;21.60;39.86
84340;SHT30;74521;45.618;5.212;2024-03-02T07:00:01;21.64;39.85
84340;SHT30;74521;45.618;5.212;2024-03-02T07:02:30;21.64;39.88
84340;SHT30;74521;45.618;5.212;2024-03-02T07:04:57;21.66;39.91
84340;SHT30;74521;45.618;5.212;2024-03-02T07:07:23;21.67;39.86
84340;SHT30;74521;45.618;5.212;2024-03-02T07:09:50;21.66;39.87
84340;SHT30;74521;45.618;5.212;2024-03-02T07:12:17;21.66;39.89
84340;SHT30;74521;45.618;5.212;2024-03-02T07:14:45;21.67;39.82
84340;SHT30;74521;45.618;5.212;2024-03-02T07:17:36;21.68;39.86
84340;SHT30;74521;45.618;5.212;2024-03-02T07:20:04;21.68;39.82
84340;SHT30;74521;45.618;5.212;2024-03-02T07:22:32;21.67;39.84
84340;SHT30;74521;45.618;5.212;2024-03-02T07:24:58;21.66;39.83
84340;SHT30;74521;45.618;5.212;2024-03-02T07:27:25;21.67;39.87
84340;SHT30;74521;45.618;5.212;2024-03-02T07:29:56;21.66;39.90
84340;SHT30;74521;45.618;5.212;2024-03-02T07:32:23;21.66;40.21
84340;SHT30;74521;45.618;5.212;2024-03-02T07:34:49;21.66;40.43
84340;SHT30;74521;45.618;5.212;2024-03-02T07:37:16;21.67;40.49
84340;SHT30;74521;45.618;5.212;2024-03-02T07:39:44;21.67;40.44
84340;SHT30;74521;45.618;5.212;2024-03-02T07:42:11;21.67;40.43
84340;SHT30;74521;45.618;5.212;2024-03-02T07:44:37;21.67;40.44
84340;SHT30;74521;45.618;5.212;2024-03-02T07:47:06;21.66;40.43
84340;SHT30;74521;45.618;5.212;2024-03-02T07:49:33;21.66;40.43
84340;SHT30;74521;45.618;5.212;2024-03-02T07:51:59;21.63;40.40
84340;SHT30;74521;45.618;5.212;2024-03-02T07:54:26;21.64;40.57
84340;SHT30;74521;45.618;5.212;2024-03-02T07:56:53;21.61;40.44
84340;SHT30;74521;45.618;5.212;2024-03-02T07:59:19;21.61;40.44
84340;SHT30;74521;45.618;5.212;2024-03-02T08:01:48;21.60;40.54
84340;SHT30;74521;45.618;5.212;2024-03-02T08:04:17;21.58;40.51
84340;SHT30;74521;45.618;5.212;2024-03-02T08:06:45;21.58;40.50
84340;SHT30;74521;45.618;5.212;2024-03-02T08:09:12;21.58;40.34
84340;SHT30;74521;45.618;5.212;2024-03-02T08:11:39;21.58;40.36
84340;SHT30;74521;45.618;5.212;2024-03-02T08:14:05;21.56;40.38
84340;SHT30;74521;45.618;5.212;2024-03-02T08:16:32;21.56;40.38
84340;SHT30;74521;45.618;5.212;2024-03-02T08:18:59;21.57;40.43
84340;SHT30;74521;45.618;5.212;2024-03-02T08:21:27;21.56;40.43
84340;SHT30;74521;45.618;5.212;2024-03-02T08:23:56;21.56;40.57
84340;SHT30;74521;45.618;5.212;2024-03-02T08:26:23;21.56;40.50
84340;SHT30;74521;45.618;5.212;2024-03-02T08:28:49;21.53;40.63
84340;SHT30;74521;45.618;5.212;2024-03-02T08:31:16;21.56;40.65
84340;SHT30;74521;45.618;5.212;2024-03-02T08:33:42;21.53;40.66
84340;SHT30;74521;45.618;5.212;2024-03-02T08:36:09;21.53;40.56
84340;SHT30;74521;45.618;5.212;2024-03-02T08:38:38;21.50;40.67
84340;SHT30;74521;45.618;5.212;2024-03-02T08:41:04;21.54;40.49
84340;SHT30;74521;45.618;5.212;2024-03-02T08:43:31;21.56;40.51
84340;SHT30;74521;45.618;5.212;2024-03-02T08:45:58;21.56;40.49
84340;SHT30;74521;45.618;5.212;2024-03-02T08:48:24;21.56;40.49
84340;SHT30;74521;45.618;5.212;2024-03-02T08:50:51;21.57;40.23
84340;SHT30;74521;45.618;5.212;2024-03-02T08:53:17;21.60;40.13
84340;SHT30;74521;45.618;5.212;2024-03-02T08:55:46;21.60;40.13
84340;SHT30;74521;45.618;5.212;2024-03-02T08:58:13;21.56;40.22
84340;SHT30;74521;45.618;5.212;2024-03-02T09:00:40;21.58;40.29
84340;SHT30;74521;45.618;5.212;2024-03-02T09:03:07;21.58;40.27
84340;SHT30;74521;45.618;5.212;2024-03-02T09:05:34;21.57;40.24
84340;SHT30;74521;45.618;5.212;2024-03-02T09:08:00;21.57;40.31
84340;SHT30;74521;45.618;5.212;2024-03-02T09:10:28;21.58;40.20
84340;SHT30;74521;45.618;5.212;2024-03-02T09:12:57;21.57;40.23
84340;SHT30;74521;45.618;5.212;2024-03-02T09:15:23;21.57;40.29
84340;SHT30;74521;45.618;5.212;2024-03-02T09:17:50;21.58;40.28
84340;SHT30;74521;45.618;5.212;2024-03-02T09:20:16;21.57;40.26
84340;SHT30;74521;45.618;5.212;2024-03-02T09:22:43;21.58;40.30
84340;SHT30;74521;45.618;5.212;2024-03-02T09:25:12;21.60;40.33
84340;SHT30;74521;45.618;5.212;2024-03-02T09:27:39;21.60;40.33
84340;SHT30;74521;45.618;5.212;2024-03-02T09:30:09;21.61;40.34
84340;SHT30;74521;45.618;5.212;2024-03-02T09:32:36;21.63;40.38
84340;SHT30;74521;45.618;5.212;2024-03-02T09:35:03;21.61;40.45
84340;SHT30;74521;45.618;5.212;2024-03-02T09:37:30;21.60;40.42
84340;SHT30;74521;45.618;5.212;2024-03-02T09:39:57;21.61;40.49
84340;SHT30;74521;45.618;5.212;2024-03-02T09:42:24;21.61;40.44
84340;SHT30;74521;45.618;5.212;2024-03-02T09:44:52;21.60;40.45
84340;SHT30;74521;45.618;5.212;2024-03-02T09:47:20;21.61;40.42
84340;SHT30;74521;45.618;5.212;2024-03-02T09:49:47;21.61;40.42
84340;SHT30;74521;45.618;5.212;2024-03-02T09:52:14;21.61;40.49
84340;SHT30;74521;45.618;5.212;2024-03-02T09:54:41;21.61;40.45
84340;SHT30;74521;45.618;5.212;2024-03-02T09:57:08;21.61;40.42
84340;SHT30;74521;45.618;5.212;2024-03-02T09:59:35;21.60;40.41
84340;SHT30;74521;45.618;5.212;2024-03-02T10:02:02;21.63;40.34
84340;SHT30;74521;45.618;5.212;2024-03-02T10:04:33;21.66;40.31
84340;SHT30;74521;45.618;5.212;2024-03-02T10:07:11;21.66;40.07
84340;SHT30;74521;45.618;5.212;2024-03-02T10:09:38;21.64;40.14
84340;SHT30;74521;45.618;5.212;2024-03-02T10:12:06;21.66;40.52
84340;SHT30;74521;45.618;5.212;2024-03-02T10:14:34;21.63;40.43
84340;SHT30;74521;45.618;5.212;2024-03-02T10:17:05;21.66;40.55
84340;SHT30;74521;45.618;5.212;2024-03-02T10:19:33;21.66;40.52
84340;SHT30;74521;45.618;5.212;2024-03-02T10:22:01;21.64;40.56
84340;SHT30;74521;45.618;5.212;2024-03-02T10:24:35;21.63;39.68
84340;SHT30;74521;45.618;5.212;2024-03-02T10:27:07;21.58;40.01
84340;SHT30;74521;45.618;5.212;2024-03-02T10:29:37;21.58;40.19
84340;SHT30;74521;45.618;5.212;2024-03-02T10:32:04;21.60;40.11
84340;SHT30;74521;45.618;5.212;2024-03-02T10:34:33;21.57;40.05
84340;SHT30;74521;45.618;5.212;2024-03-02T10:36:59;21.57;40.08
84340;SHT30;74521;45.618;5.212;2024-03-02T10:39:27;21.60;39.96
84340;SHT30;74521;45.618;5.212;2024-03-02T10:41:55;21.61;40.23
84340;SHT30;74521;45.618;5.212;2024-03-02T10:44:23;21.58;40.16
84340;SHT30;74521;45.618;5.212;2024-03-02T10:46:50;21.63;40.19
84340;SHT30;74521;45.618;5.212;2024-03-02T10:49:20;21.60;40.44
84340;SHT30;74521;45.618;5.212;2024-03-02T10:51:50;21.61;40.36
84340;SHT30;74521;45.618;5.212;2024-03-02T10:54:17;21.61;40.36
84340;SHT30;74521;45.618;5.212;2024-03-02T10:56:53;21.63;40.40
84340;SHT30;74521;45.618;5.212;2024-03-02T10:59:26;21.63;40.48
84340;SHT30;74521;45.618;5.212;2024-03-02T11:01:55;21.66;40.52
84340;SHT30;74521;45.618;5.212;2024-03-02T11:04:24;21.64;40.50
84340;SHT30;74521;45.618;5.212;2024-03-02T11:06:56;21.70;40.54
84340;SHT30;74521;45.618;5.212;2024-03-02T11:09:26;21.71;40.55
84340;SHT30;74521;45.618;5.212;2024-03-02T11:12:03;21.73;40.67
84340;SHT30;74521;45.618;5.212;2024-03-02T11:14:32;21.74;40.76
84340;SHT30;74521;45.618;5.212;2024-03-02T11:17:03;21.77;40.72
84340;SHT30;74521;45.618;5.212;2024-03-02T11:19:31;21.80;40.84
84340;SHT30;74521;45.618;5.212;2024-03-02T11:22:00;21.80;40.79
84340;SHT30;74521;45.618;5.212;2024-03-02T11:24:29;21.81;40.81
84340;SHT30;74521;45.618;5.212;2024-03-02T11:26:59;21.81;40.89
84340;SHT30;74521;45.618;5.212;2024-03-02T11:29:45;21.83;40.86
84340;SHT30;74521;45.618;5.212;2024-03-02T11:32:17;21.81;40.85
84340;SHT30;74521;45.618;5.212;2024-03-02T11:34:46;21.83;40.91
84340;SHT30;74521;45.618;5.212;2024-03-02T11:37:16;21.83;40.94
84340;SHT30;74521;45.618;5.212;2024-03-02T11:39:44;21.84;40.95
84340;SHT30;74521;45.618;5.212;2024-03-02T11:42:12;21.87;40.88
84340;SHT30;74521;45.618;5.212;2024-03-02T11:44:42;21.87;40.94
84340;SHT30;74521;45.618;5.212;2024-03-02T11:47:11;21.90;40.99
84340;SHT30;74521;45.618;5.212;2024-03-02T11:49:41;21.90;40.99
84340;SHT30;74521;45.618;5.212;2024-03-02T11:52:09;21.91;40.99
84340;SHT30;74521;45.618;5.212;2024-03-02T11:54:39;21.91;41.09
84340;SHT30;74521;45.618;5.212;2024-03-02T11:57:07;21.93;41.03
84340;SHT30;74521;45.618;5.212;2024-03-02T11:59:34;21.93;41.00
84340;SHT30;74521;45.618;5.212;2024-03-02T12:02:01;21.91;40.97
84340;SHT30;74521;45.618;5.212;2024-03-02T12:04:29;21.94;41.04
84340;SHT30;74521;45.618;5.212;2024-03-02T12:06:56;21.94;40.97
84340;SHT30;74521;45.618;5.212;2024-03-02T12:09:25;21.94;41.01
84340;SHT30;74521;45.618;5.212;2024-03-02T12:12:03;21.95;41.04
84340;SHT30;74521;45.618;5.212;2024-03-02T12:14:30;21.93;41.08
84340;SHT30;74521;45.618;5.212;2024-03-02T12:16:57;21.95;41.14
84340;SHT30;74521;45.618;5.212;2024-03-02T12:19:25;21.97;41.14
84340;SHT30;74521;45.618;5.212;2024-03-02T12:21:52;22.01;41.16
84340;SHT30;74521;45.618;5.212;2024-03-02T12:24:20;22.01;41.16
84340;SHT30;74521;45.618;5.212;2024-03-02T12:26:47;22.04;41.17
84340;SHT30;74521;45.618;5.212;2024-03-02T12:29:16;22.04;41.12
84340;SHT30;74521;45.618;5.212;2024-03-02T12:31:42;22.02;41.16
84340;SHT30;74521;45.618;5.212;2024-03-02T12:34:11;22.04;41.22
84340;SHT30;74521;45.618;5.212;2024-03-02T12:36:38;22.05;41.19
84340;SHT30;74521;45.618;5.212;2024-03-02T12:39:07;22.02;41.21
84340;SHT30;74521;45.618;5.212;2024-03-02T12:41:36;22.04;41.18
84340;SHT30;74521;45.618;5.212;2024-03-02T12:44:02;22.04;41.20
84340;SHT30;74521;45.618;5.212;2024-03-02T12:46:30;22.06;41.19
84340;SHT30;74521;45.618;5.212;2024-03-02T12:48:56;22.08;41.25
84340;SHT30;74521;45.618;5.212;2024-03-02T12:51:24;22.08;41.31
84340;SHT30;74521;45.618;5.212;2024-03-02T12:53:53;22.09;41.33
84340;SHT30;74521;45.618;5.212;2024-03-02T12:56:20;22.09;41.44
84340;SHT30;74521;45.618;5.212;2024-03-02T12:58:47;22.14;41.36
84340;SHT30;74521;45.618;5.212;2024-03-02T13:01:15;22.12;41.33
84340;SHT30;74521;45.618;5.212;2024-03-02T13:03:48;22.15;41.35
84340;SHT30;74521;45.618;5.212;2024-03-02T13:06:16;22.16;41.45
84340;SHT30;74521;45.618;5.212;2024-03-02T13:08:44;22.19;41.41
84340;SHT30;74521;45.618;5.212;2024-03-02T13:11:11;22.18;41.52
84340;SHT30;74521;45.618;5.212;2024-03-02T13:13:38;22.18;41.51
84340;SHT30;74521;45.618;5.212;2024-03-02T13:16:08;22.19;41.53
84340;SHT30;74521;45.618;5.212;2024-03-02T13:18:35;22.21;41.51
84340;SHT30;74521;45.618;5.212;2024-03-02T13:21:03;22.22;41.48
84340;SHT30;74521;45.618;5.212;2024-03-02T13:23:30;22.21;41.52
84340;SHT30;74521;45.618;5.212;2024-03-02T13:25:57;22.21;41.53
84340;SHT30;74521;45.618;5.212;2024-03-02T13:28:24;22.19;41.52
84340;SHT30;74521;45.618;5.212;2024-03-02T13:30:51;22.21;41.52
84340;SHT30;74521;45.618;5.212;2024-03-02T13:33:18;22.24;41.52
84340;SHT30;74521;45.618;5.212;2024-03-02T13:35:48;22.26;41.54
84340;SHT30;74521;45.618;5.212;2024-03-02T13:38:16;22.25;41.56
84340;SHT30;74521;45.618;5.212;2024-03-02T13:40:43;22.25;41.50
84340;SHT30;74521;45.618;5.212;2024-03-02T13:43:10;22.25;41.48
84340;SHT30;74521;45.618;5.212;2024-03-02T13:45:37;22.25;41.51
84340;SHT30;74521;45.618;5.212;2024-03-02T13:48:04;22.26;41.49
84340;SHT30;74521;45.618;5.212;2024-03-02T13:50:31;22.29;41.50
84340;SHT30;74521;45.618;5.212;2024-03-02T13:53:02;22.25;41.50
84340;SHT30;74521;45.618;5.212;2024-03-02T13:55:31;22.25;41.52
84340;SHT30;74521;45.618;5.212;2024-03-02T13:57:58;22.25;41.51
84340;SHT30;74521;45.618;5.212;2024-03-02T14:00:25;22.25;41.60
84340;SHT30;74521;45.618;5.212;2024-03-02T14:02:52;22.24;41.49
84340;SHT30;74521;45.618;5.212;2024-03-02T14:05:18;22.24;41.40
84340;SHT30;74521;45.618;5.212;2024-03-02T14:07:45;22.22;41.52
84340;SHT30;74521;45.618;5.212;2024-03-02T14:10:12;22.24;41.54
84340;SHT30;74521;45.618;5.212;2024-03-02T14:12:40;22.26;41.57
84340;SHT30;74521;45.618;5.212;2024-03-02T14:15:07;22.25;41.57
84340;SHT30;74521;45.618;5.212;2024-03-02T14:17:34;22.28;41.51
84340;SHT30;74521;45.618;5.212;2024-03-02T14:20:01;22.28;41.54
84340;SHT30;74521;45.618;5.212;2024-03-02T14:22:28;22.28;41.56
84340;SHT30;74521;45.618;5.212;2024-03-02T14:24:55;22.31;41.58
84340;SHT30;74521;45.618;5.212;2024-03-02T14:27:23;22.29;41.60
84340;SHT30;74521;45.618;5.212;2024-03-02T14:29:52;22.29;41.73
84340;SHT30;74521;45.618;5.212;2024-03-02T14:32:18;22.28;41.84
84340;SHT30;74521;45.618;5.212;2024-03-02T14:34:45;22.28;41.78
84340;SHT30;74521;45.618;5.212;2024-03-02T14:37:12;22.29;41.79
84340;SHT30;74521;45.618;5.212;2024-03-02T14:39:39;22.26;41.82
84340;SHT30;74521;45.618;5.212;2024-03-02T14:42:05;22.26;41.81
84340;SHT30;74521;45.618;5.212;2024-03-02T14:44:33;22.25;41.74
84340;SHT30;74521;45.618;5.212;2024-03-02T14:47:01;22.22;41.84
84340;SHT30;74521;45.618;5.212;2024-03-02T14:49:29;22.26;41.78
84340;SHT30;74521;45.618;5.212;2024-03-02T14:51:56;22.26;41.77
84340;SHT30;74521;45.618;5.212;2024-03-02T14:54:23;22.28;41.72
84340;SHT30;74521;45.618;5.212;2024-03-02T14:56:50;22.28;41.70
84340;SHT30;74521;45.618;5.212;2024-03-02T14:59:17;22.31;41.67
84340;SHT30;74521;45.618;5.212;2024-03-02T15:01:43;22.26;41.69
84340;SHT30;74521;45.618;5.212;2024-03-02T15:04:11;22.31;41.66
84340;SHT30;74521;45.618;5.212;2024-03-02T15:06:39;22.29;41.65
84340;SHT30;74521;45.618;5.212;2024-03-02T15:09:05;22.26;41.62
84340;SHT30;74521;45.618;5.212;2024-03-02T15:11:32;22.25;41.81
84340;SHT30;74521;45.618;5.212;2024-03-02T15:13:59;22.26;41.77
84340;SHT30;74521;45.618;5.212;2024-03-02T15:16:26;22.25;41.81
84340;SHT30;74521;45.618;5.212;2024-03-02T15:18:53;22.24;41.78
84340;SHT30;74521;45.618;5.212;2024-03-02T15:21:21;22.26;41.74
84340;SHT30;74521;45.618;5.212;2024-03-02T15:23:48;22.26;41.76
84340;SHT30;74521;45.618;5.212;2024-03-02T15:26:14;22.28;41.70
84340;SHT30;74521;45.618;5.212;2024-03-02T15:28:40;22.29;41.73
84340;SHT30;74521;45.618;5.212;2024-03-02T15:31:08;22.28;41.70
84340;SHT30;74521;45.618;5.212;2024-03-02T15:33:34;22.28;41.72